createdAt,value
2018-02-25T00:00:05.975Z,20.07
2018-02-25T00:02:36.071Z,23.13
2018-02-25T00:05:05.969Z,26.10
2018-02-25T00:07:41.536Z,22.53
2018-02-25T00:10:11.327Z,21.27
2018-02-25T00:12:40.909Z,21.80
2018-02-25T00:15:10.529Z,26.40
2018-02-25T00:17:40.109Z,23.50
2018-02-25T00:20:09.818Z,22.90
2018-02-25T00:22:40.232Z,22.77
2018-02-25T00:25:18.928Z,24.70
2018-02-25T00:27:48.494Z,26.90
2018-02-25T00:30:18.060Z,25.50
2018-02-25T00:33:01.670Z,19.87
2018-02-25T00:35:32.518Z,20.30
2018-02-25T00:38:05.234Z,26.27
2018-02-25T00:40:34.817Z,27.67
2018-02-25T00:43:04.839Z,27.13
2018-02-25T00:45:48.456Z,25.90
2018-02-25T00:48:18.998Z,22.80
2018-02-25T00:50:55.256Z,21.70
2018-02-25T00:53:27.638Z,20.60
2018-02-25T00:55:57.676Z,21.20
2018-02-25T01:01:11.153Z,18.57
2018-02-25T01:03:40.958Z,20.07
2018-02-25T01:06:10.533Z,20.57
2018-02-25T01:08:47.910Z,30.50
2018-02-25T01:11:36.792Z,22.30
2018-02-25T01:14:06.360Z,23.43
2018-02-25T01:16:35.937Z,23.90
2018-02-25T01:19:05.568Z,19.60
2018-02-25T01:21:35.354Z,19.40
2018-02-25T01:24:05.477Z,19.27
2018-02-25T01:26:35.234Z,23.27
2018-02-25T01:29:04.988Z,22.83
2018-02-25T01:31:35.324Z,20.73
2018-02-25T01:34:04.936Z,21.33
2018-02-25T01:36:36.499Z,20.00
2018-02-25T01:39:07.096Z,22.70
2018-02-25T01:41:36.683Z,21.63
2018-02-25T01:44:06.508Z,21.87
2018-02-25T01:46:36.146Z,21.93
2018-02-25T01:49:07.158Z,19.73
2018-02-25T01:51:36.794Z,20.07
2018-02-25T01:54:06.398Z,24.63
2018-02-25T01:56:42.096Z,19.20
2018-02-25T01:59:11.667Z,25.67
2018-02-25T02:01:49.248Z,20.90
2018-02-25T02:04:18.810Z,27.57
2018-02-25T02:06:53.269Z,22.60
2018-02-25T02:09:22.898Z,23.20
2018-02-25T02:11:52.452Z,27.10
2018-02-25T02:14:22.020Z,29.87
2018-02-25T02:16:52.880Z,27.17
2018-02-25T02:19:22.538Z,28.17
2018-02-25T02:21:52.447Z,28.10
2018-02-25T02:24:34.832Z,25.83
2018-02-25T02:27:04.421Z,26.27
2018-02-25T02:29:34.026Z,31.20
2018-02-25T02:32:03.681Z,25.07
2018-02-25T02:34:35.108Z,26.83
2018-02-25T02:37:04.756Z,26.80
2018-02-25T02:39:34.352Z,30.47
2018-02-25T02:42:03.988Z,26.63
2018-02-25T02:44:33.550Z,29.00
2018-02-25T02:47:10.155Z,23.27
2018-02-25T02:49:39.718Z,26.53
2018-02-25T02:52:09.499Z,29.50
2018-02-25T02:54:39.709Z,26.57
2018-02-25T02:57:09.264Z,26.87
2018-02-25T02:59:38.783Z,32.27
2018-02-25T03:02:14.807Z,24.07
2018-02-25T03:04:45.788Z,25.63
2018-02-25T03:07:17.368Z,27.30
2018-02-25T03:09:47.627Z,27.30
2018-02-25T03:12:17.349Z,28.60
2018-02-25T03:14:46.953Z,27.10
2018-02-25T03:17:16.550Z,21.60
2018-02-25T03:19:46.118Z,23.63
2018-02-25T03:22:15.634Z,22.43
2018-02-25T03:24:45.483Z,23.70
2018-02-25T03:27:15.070Z,28.03
2018-02-25T03:29:44.788Z,35.17
2018-02-25T03:32:14.416Z,27.70
2018-02-25T03:34:43.984Z,26.97
2018-02-25T03:37:13.734Z,32.93
2018-02-25T03:39:43.324Z,27.87
2018-02-25T03:42:12.977Z,31.00
2018-02-25T03:44:42.597Z,29.33
2018-02-25T03:47:12.141Z,32.07
2018-02-25T03:49:41.987Z,36.23
2018-02-25T03:52:11.804Z,31.00
2018-02-25T03:54:41.390Z,34.70
2018-02-25T03:57:11.420Z,30.03
2018-02-25T03:59:41.360Z,31.93
2018-02-25T04:02:10.978Z,40.93
2018-02-25T04:04:40.546Z,27.50
2018-02-25T04:07:10.175Z,27.40
2018-02-25T04:10:00.788Z,28.83
2018-02-25T04:12:30.444Z,31.90
2018-02-25T04:15:13.089Z,32.53
2018-02-25T04:17:42.678Z,35.37
2018-02-25T04:20:12.259Z,35.00
2018-02-25T04:22:44.904Z,32.10
2018-02-25T04:25:14.527Z,37.27
2018-02-25T04:27:44.358Z,37.03
2018-02-25T04:30:13.901Z,33.53
2018-02-25T04:32:43.481Z,33.10
2018-02-25T04:35:21.116Z,31.73
2018-02-25T04:37:50.733Z,36.37
2018-02-25T04:40:28.348Z,32.13
2018-02-25T04:43:03.984Z,32.80
2018-02-25T04:45:33.548Z,33.00
2018-02-25T04:48:03.496Z,36.10
2018-02-25T04:50:41.246Z,34.67
2018-02-25T04:53:10.904Z,41.80
2018-02-25T04:55:40.561Z,33.53
2018-02-25T04:58:10.129Z,39.00
2018-02-25T05:00:39.715Z,34.77
2018-02-25T05:03:09.821Z,30.80
2018-02-25T05:05:39.451Z,33.93
2018-02-25T05:08:09.086Z,30.23
2018-02-25T05:10:39.107Z,37.77
2018-02-25T05:13:08.728Z,34.43
2018-02-25T05:15:38.596Z,34.13
2018-02-25T05:18:08.287Z,33.77
2018-02-25T05:20:52.980Z,31.63
2018-02-25T05:23:22.566Z,34.90
2018-02-25T05:25:52.154Z,32.33
2018-02-25T05:28:29.464Z,43.97
2018-02-25T05:30:59.388Z,38.50
2018-02-25T05:33:28.937Z,36.07
2018-02-25T05:35:58.541Z,39.43
2018-02-25T05:38:28.695Z,47.80
2018-02-25T05:40:59.114Z,38.17
2018-02-25T05:43:29.018Z,42.83
2018-02-25T05:45:59.022Z,43.33
2018-02-25T05:48:36.555Z,40.00
2018-02-25T05:51:06.146Z,45.43
2018-02-25T05:53:35.740Z,41.20
2018-02-25T05:56:05.299Z,40.60
2018-02-25T05:58:34.887Z,39.33
2018-02-25T06:01:04.870Z,37.70
2018-02-25T06:03:34.440Z,39.93
2018-02-25T06:06:04.094Z,39.83
2018-02-25T06:08:33.685Z,41.07
2018-02-25T06:11:19.998Z,43.63
2018-02-25T06:13:49.600Z,37.30
2018-02-25T06:16:20.067Z,40.80
2018-02-25T06:18:49.638Z,37.37
2018-02-25T06:21:19.312Z,40.57
2018-02-25T06:23:48.970Z,43.80
2018-02-25T06:26:18.575Z,34.20
2018-02-25T06:28:48.781Z,36.53
2018-02-25T06:31:18.417Z,32.60
2018-02-25T06:33:47.992Z,38.80
2018-02-25T06:36:17.664Z,39.57
2018-02-25T06:38:47.591Z,40.13
2018-02-25T06:41:17.222Z,36.07
2018-02-25T06:43:53.037Z,35.50
2018-02-25T06:46:23.096Z,33.87
2018-02-25T06:48:52.659Z,36.27
2018-02-25T06:51:22.246Z,35.33
2018-02-25T06:54:03.841Z,39.27
2018-02-25T06:56:33.684Z,37.47
2018-02-25T06:59:04.428Z,41.70
2018-02-25T07:01:33.982Z,35.93
2018-02-25T07:04:10.423Z,33.37
2018-02-25T07:06:39.996Z,41.53
2018-02-25T07:09:09.598Z,38.27
2018-02-25T07:11:39.572Z,42.60
2018-02-25T07:14:09.260Z,43.47
2018-02-25T07:16:38.854Z,38.80
2018-02-25T07:19:16.496Z,37.10
2018-02-25T07:21:46.098Z,42.77
2018-02-25T07:24:30.991Z,39.13
2018-02-25T07:27:00.530Z,38.47
2018-02-25T07:29:30.305Z,40.57
2018-02-25T07:31:59.899Z,35.27
2018-02-25T07:34:35.493Z,40.93
2018-02-25T07:37:05.117Z,38.67
2018-02-25T07:39:34.704Z,35.93
2018-02-25T07:42:04.301Z,39.00
2018-02-25T07:44:33.924Z,39.77
2018-02-25T07:47:03.523Z,40.60
2018-02-25T07:49:34.063Z,41.90
2018-02-25T07:52:07.492Z,37.50
2018-02-25T07:54:37.181Z,54.83
2018-02-25T07:57:08.509Z,35.20
2018-02-25T07:59:38.889Z,35.43
2018-02-25T08:02:08.478Z,37.83
2018-02-25T08:04:42.299Z,38.60
2018-02-25T08:07:11.840Z,36.43
2018-02-25T08:09:41.706Z,44.47
2018-02-25T08:12:19.768Z,51.70
2018-02-25T08:14:50.663Z,39.80
2018-02-25T08:17:20.195Z,40.47
2018-02-25T08:19:49.784Z,53.33
2018-02-25T08:22:29.485Z,37.00
2018-02-25T08:24:59.117Z,35.10
2018-02-25T08:27:34.725Z,33.50
2018-02-25T08:30:17.955Z,38.87
2018-02-25T08:32:47.692Z,33.70
2018-02-25T08:35:19.523Z,35.40
2018-02-25T08:38:03.067Z,36.73
2018-02-25T08:40:46.008Z,39.23
2018-02-25T08:43:15.895Z,39.53
2018-02-25T08:45:51.665Z,34.37
2018-02-25T08:48:21.283Z,36.90
2018-02-25T08:50:57.138Z,40.47
2018-02-25T08:53:26.915Z,50.83
2018-02-25T08:55:56.511Z,53.83
2018-02-25T08:58:26.070Z,47.40
2018-02-25T09:01:09.804Z,42.77
2018-02-25T09:03:39.397Z,46.83
2018-02-25T09:06:08.952Z,33.17
2018-02-25T09:08:39.446Z,31.43
2018-02-25T09:11:09.458Z,35.93
2018-02-25T09:13:39.111Z,29.63
2018-02-25T09:16:08.706Z,43.13
2018-02-25T09:18:39.219Z,33.53
2018-02-25T09:21:08.818Z,37.93
2018-02-25T09:23:38.899Z,34.80
2018-02-25T09:26:08.524Z,34.40
2018-02-25T09:28:38.102Z,32.70
2018-02-25T09:31:09.248Z,48.77
2018-02-25T09:33:39.747Z,42.93
2018-02-25T09:38:44.532Z,37.37
2018-02-25T09:41:14.084Z,42.23
2018-02-25T09:43:44.515Z,38.03
2018-02-25T09:46:14.158Z,38.20
2018-02-25T09:48:43.687Z,33.60
2018-02-25T09:51:13.263Z,37.30
2018-02-25T09:53:42.823Z,28.40
2018-02-25T09:56:12.343Z,33.57
2018-02-25T09:58:41.999Z,32.80
2018-02-25T10:01:11.592Z,39.13
2018-02-25T10:03:41.821Z,31.90
2018-02-25T10:06:11.425Z,31.53
2018-02-25T10:08:41.037Z,33.00
2018-02-25T10:11:11.044Z,34.00
2018-02-25T10:13:40.727Z,45.47
2018-02-25T10:16:11.251Z,50.20
2018-02-25T10:18:40.818Z,37.20
2018-02-25T10:21:10.421Z,40.60
2018-02-25T10:23:39.952Z,47.43
2018-02-25T10:26:09.532Z,40.77
2018-02-25T10:28:39.083Z,49.23
2018-02-25T10:31:08.621Z,42.80
2018-02-25T10:33:38.180Z,39.97
2018-02-25T10:36:07.761Z,38.20
2018-02-25T10:38:37.797Z,37.50
2018-02-25T10:41:07.377Z,36.27
2018-02-25T10:43:38.291Z,46.40
2018-02-25T10:46:07.873Z,40.97
2018-02-25T10:48:37.427Z,42.97
2018-02-25T10:51:07.002Z,40.93
2018-02-25T10:53:49.753Z,39.30
2018-02-25T10:56:19.259Z,43.23
2018-02-25T10:58:48.771Z,35.73
2018-02-25T11:01:18.322Z,37.67
2018-02-25T11:03:47.870Z,40.47
2018-02-25T11:06:17.534Z,37.50
2018-02-25T11:09:00.275Z,37.30
2018-02-25T11:11:30.004Z,40.40
2018-02-25T11:13:59.581Z,39.10
2018-02-25T11:16:30.704Z,40.13
2018-02-25T11:19:02.169Z,38.47
2018-02-25T11:21:31.729Z,53.83
2018-02-25T11:24:01.308Z,42.73
2018-02-25T11:26:45.686Z,40.03
2018-02-25T11:29:28.812Z,43.27
2018-02-25T11:31:58.648Z,41.33
2018-02-25T11:34:29.344Z,42.87
2018-02-25T11:37:06.476Z,42.30
2018-02-25T11:39:48.079Z,48.30
2018-02-25T11:42:17.641Z,41.50
2018-02-25T11:44:47.300Z,39.93
2018-02-25T11:47:17.132Z,38.30
2018-02-25T11:49:46.744Z,37.70
2018-02-25T11:52:16.323Z,43.20
2018-02-25T11:54:46.609Z,40.27
2018-02-25T11:57:31.420Z,37.20
2018-02-25T12:00:00.954Z,39.50
2018-02-25T12:02:30.550Z,42.83
2018-02-25T12:05:00.084Z,35.67
2018-02-25T12:07:29.604Z,44.50
2018-02-25T12:09:59.402Z,44.27
2018-02-25T12:12:29.548Z,39.17
2018-02-25T12:14:59.612Z,40.70
2018-02-25T12:17:29.039Z,37.87
2018-02-25T12:20:04.821Z,41.23
2018-02-25T12:22:34.935Z,48.70
2018-02-25T12:25:04.535Z,44.73
2018-02-25T12:27:34.191Z,47.83
2018-02-25T12:30:03.822Z,48.03
2018-02-25T12:32:42.409Z,50.70
2018-02-25T12:35:12.286Z,44.37
2018-02-25T12:37:42.036Z,38.60
2018-02-25T12:40:11.797Z,47.90
2018-02-25T12:42:41.359Z,41.13
2018-02-25T12:45:10.964Z,47.73
2018-02-25T12:47:42.300Z,44.90
2018-02-25T12:50:11.907Z,40.70
2018-02-25T12:52:41.888Z,43.90
2018-02-25T12:55:11.693Z,36.00
2018-02-25T12:57:41.993Z,49.60
2018-02-25T13:00:11.591Z,47.90
2018-02-25T13:02:41.423Z,51.50
2018-02-25T13:05:12.996Z,48.50
2018-02-25T13:07:44.082Z,68.67
2018-02-25T13:10:14.026Z,48.13
2018-02-25T13:12:43.890Z,44.23
2018-02-25T13:15:13.588Z,47.73
2018-02-25T13:17:43.147Z,40.57
2018-02-25T13:20:12.716Z,46.27
2018-02-25T13:22:42.374Z,38.53
2018-02-25T13:25:12.017Z,38.13
2018-02-25T13:27:42.525Z,39.00
2018-02-25T13:30:18.298Z,42.20
2018-02-25T13:32:47.921Z,42.23
2018-02-25T13:35:18.844Z,54.03
2018-02-25T13:37:56.434Z,48.70
2018-02-25T13:40:33.533Z,44.47
2018-02-25T13:43:03.210Z,53.77
2018-02-25T13:45:32.795Z,44.53
2018-02-25T13:48:03.377Z,71.03
2018-02-25T13:50:32.972Z,54.10
2018-02-25T13:53:02.576Z,56.83
2018-02-25T13:55:32.181Z,54.50
2018-02-25T13:58:01.686Z,53.50
2018-02-25T14:00:31.203Z,46.17
2018-02-25T14:03:00.742Z,40.80
2018-02-25T14:05:30.303Z,46.60
2018-02-25T14:07:59.957Z,40.47
2018-02-25T14:10:29.476Z,33.57
2018-02-25T14:12:59.182Z,33.97
2018-02-25T14:15:28.962Z,32.07
2018-02-25T14:18:07.822Z,33.93
2018-02-25T14:20:37.429Z,39.50
2018-02-25T14:23:07.976Z,29.37
2018-02-25T14:25:37.984Z,32.50
2018-02-25T14:28:08.075Z,35.17
2018-02-25T14:30:37.659Z,33.73
2018-02-25T14:33:07.234Z,36.73
2018-02-25T14:35:36.771Z,45.03
2018-02-25T14:38:06.401Z,31.30
2018-02-25T14:40:36.465Z,31.87
2018-02-25T14:43:06.333Z,30.33
2018-02-25T14:45:35.953Z,33.40
2018-02-25T14:48:12.891Z,36.57
2018-02-25T14:50:42.592Z,33.93
2018-02-25T14:53:12.182Z,33.47
2018-02-25T14:55:42.196Z,32.73
2018-02-25T14:58:11.785Z,33.43
2018-02-25T15:00:56.533Z,30.00
2018-02-25T15:06:22.536Z,46.70
2018-02-25T15:08:52.188Z,27.87
2018-02-25T15:11:22.706Z,30.37
2018-02-25T15:13:52.206Z,25.73
2018-02-25T15:16:21.769Z,25.80
2018-02-25T15:18:51.311Z,34.70
2018-02-25T15:21:21.535Z,28.30
2018-02-25T15:23:51.076Z,30.90
2018-02-25T15:26:20.668Z,27.70
2018-02-25T15:28:50.226Z,30.83
2018-02-25T15:31:19.732Z,27.50
2018-02-25T15:33:52.216Z,28.10
2018-02-25T15:36:21.761Z,24.63
2018-02-25T15:38:51.262Z,27.60
2018-02-25T15:41:20.794Z,25.90
2018-02-25T15:43:56.723Z,27.63
2018-02-25T15:46:26.295Z,25.33
2018-02-25T15:48:55.814Z,21.23
2018-02-25T15:51:25.398Z,23.70
2018-02-25T15:53:54.957Z,24.67
2018-02-25T15:56:26.338Z,27.57
2018-02-25T15:58:56.214Z,30.43
2018-02-25T16:01:25.909Z,25.23
2018-02-25T16:03:56.503Z,19.80
2018-02-25T16:06:26.018Z,13.57
2018-02-25T16:12:16.803Z,15.57
2018-02-25T16:27:44.557Z,16.03
2018-02-25T16:30:14.165Z,21.97
2018-02-25T16:36:03.948Z,16.90
2018-02-25T16:43:41.570Z,19.13
2018-02-25T16:48:53.353Z,24.00
2018-02-25T16:51:22.934Z,17.67
2018-02-25T16:53:52.543Z,17.80
2018-02-25T16:56:22.550Z,15.53
2018-02-25T16:58:52.119Z,17.50
2018-02-25T17:01:21.772Z,16.10
2018-02-25T17:03:51.630Z,19.00
2018-02-25T17:06:21.225Z,20.43
2018-02-25T17:08:51.039Z,21.47
2018-02-25T17:11:21.618Z,20.10
2018-02-25T17:13:52.150Z,19.97
2018-02-25T17:16:22.149Z,18.63
2018-02-25T17:18:52.320Z,20.50
2018-02-25T17:21:21.926Z,17.20
2018-02-25T17:24:01.105Z,14.13
2018-02-25T17:26:31.746Z,14.83
2018-02-25T17:29:01.376Z,19.13
2018-02-25T17:31:31.277Z,14.90
2018-02-25T17:34:00.846Z,17.77
2018-02-25T17:36:31.957Z,16.87
2018-02-25T17:39:02.642Z,14.97
2018-02-25T17:41:32.487Z,18.30
2018-02-25T17:44:06.980Z,22.53
2018-02-25T17:46:36.639Z,16.27
2018-02-25T17:51:47.033Z,21.27
2018-02-25T17:54:18.216Z,21.13
2018-02-25T17:56:47.814Z,26.07
2018-02-25T17:59:17.994Z,20.87
2018-02-25T18:01:47.730Z,22.57
2018-02-25T18:04:18.837Z,22.07
2018-02-25T18:09:22.650Z,24.00
2018-02-25T18:14:54.829Z,20.27
2018-02-25T18:17:33.276Z,26.30
2018-02-25T18:20:03.316Z,21.97
2018-02-25T18:22:33.884Z,20.47
2018-02-25T18:25:03.655Z,24.47
2018-02-25T18:27:33.642Z,20.57
2018-02-25T18:30:05.574Z,19.67
2018-02-25T18:32:35.186Z,23.07
2018-02-25T18:35:11.416Z,19.00
2018-02-25T18:37:42.384Z,18.70
2018-02-25T18:40:12.775Z,18.57
2018-02-25T18:42:42.893Z,21.70
2018-02-25T18:45:13.337Z,19.37
2018-02-25T18:47:43.079Z,21.17
2018-02-25T18:50:13.523Z,19.63
2018-02-25T18:52:43.384Z,24.33
2018-02-25T18:57:47.159Z,17.70
2018-02-25T19:02:52.387Z,15.40
2018-02-25T19:05:22.373Z,16.50
2018-02-25T19:07:53.738Z,20.30
2018-02-25T19:12:57.883Z,15.10
2018-02-25T19:15:28.939Z,14.93
2018-02-25T19:18:00.888Z,15.97
2018-02-25T19:20:30.476Z,14.90
2018-02-25T19:23:12.695Z,20.50
2018-02-25T19:25:44.419Z,19.07
2018-02-25T19:28:14.324Z,17.93
2018-02-25T19:30:46.401Z,19.70
2018-02-25T19:33:24.055Z,18.67
2018-02-25T19:35:59.359Z,20.73
2018-02-25T19:38:34.871Z,18.17
2018-02-25T19:41:20.530Z,17.33
2018-02-25T19:43:50.974Z,20.10
2018-02-25T19:46:34.047Z,19.20
2018-02-25T19:49:17.720Z,19.00
2018-02-25T19:51:55.017Z,22.00
2018-02-25T19:54:25.281Z,27.40
2018-02-25T20:06:46.174Z,19.93
2018-02-25T20:11:59.565Z,21.60
2018-02-25T20:14:29.196Z,20.97
2018-02-25T20:17:00.309Z,22.03
2018-02-25T20:19:37.335Z,25.90
2018-02-25T20:24:53.373Z,22.97
2018-02-25T20:27:24.909Z,21.17
2018-02-25T20:29:59.943Z,20.20
2018-02-25T20:37:53.066Z,31.57
2018-02-25T20:43:06.292Z,27.10
2018-02-25T20:51:35.947Z,29.80
2018-02-25T20:54:06.237Z,26.90
2018-02-25T21:02:53.911Z,19.67
2018-02-25T21:05:24.227Z,29.00
2018-02-25T21:07:54.887Z,23.43
2018-02-25T21:10:25.522Z,19.23
2018-02-25T21:12:55.303Z,16.83
2018-02-25T21:15:25.010Z,21.43
2018-02-25T21:17:54.656Z,16.43
2018-02-25T21:20:24.389Z,17.10
2018-02-25T21:23:02.071Z,20.50
2018-02-25T21:25:31.691Z,18.03
2018-02-25T21:28:01.878Z,16.53
2018-02-25T21:30:31.707Z,17.60
2018-02-25T21:33:01.583Z,20.30
2018-02-25T21:35:31.307Z,15.17
2018-02-25T21:45:53.005Z,21.37
2018-02-25T21:48:22.912Z,15.37
2018-02-25T21:50:52.484Z,20.90
2018-02-25T21:53:22.155Z,20.87
2018-02-25T21:55:57.977Z,16.13
2018-02-25T21:58:33.256Z,15.00
2018-02-25T22:01:16.777Z,16.97
2018-02-25T22:03:46.435Z,13.00
2018-02-25T22:06:24.400Z,15.13
2018-02-25T22:08:53.991Z,15.40
2018-02-25T22:11:23.624Z,19.00
2018-02-25T22:13:53.232Z,15.03
2018-02-25T22:16:37.792Z,11.53
2018-02-25T22:19:11.300Z,15.50
2018-02-25T22:21:41.015Z,14.50
2018-02-25T22:24:11.928Z,37.47
2018-02-25T22:26:53.652Z,38.70
2018-02-25T22:29:25.333Z,45.40
2018-02-25T22:31:55.372Z,29.50
2018-02-25T22:34:26.935Z,45.50
2018-02-25T22:36:56.560Z,45.97
2018-02-25T22:39:26.935Z,46.60
2018-02-25T22:41:56.533Z,41.87
2018-02-25T22:44:26.155Z,28.13
2018-02-25T22:47:00.396Z,42.03
2018-02-25T22:49:30.056Z,53.97
2018-02-25T22:52:00.577Z,59.73
2018-02-25T22:54:38.016Z,49.63
2018-02-25T22:57:07.755Z,49.53
2018-02-25T22:59:37.320Z,48.07
2018-02-25T23:02:19.809Z,58.97
2018-02-25T23:04:49.708Z,54.70
2018-02-25T23:07:19.313Z,57.20
2018-02-25T23:09:56.238Z,62.97
2018-02-25T23:12:32.370Z,56.33
2018-02-25T23:15:02.167Z,70.33
2018-02-25T23:17:31.811Z,51.17
2018-02-25T23:20:01.868Z,61.77
2018-02-25T23:22:31.826Z,55.17
2018-02-25T23:25:02.103Z,53.30
2018-02-25T23:27:44.142Z,52.13
2018-02-25T23:30:20.895Z,64.17
2018-02-25T23:32:50.464Z,48.47
2018-02-25T23:35:20.023Z,53.20
2018-02-25T23:37:49.575Z,54.00
2018-02-25T23:40:19.170Z,55.90
2018-02-25T23:42:48.928Z,55.83
2018-02-25T23:45:18.507Z,70.13
2018-02-25T23:47:53.576Z,55.43
2018-02-25T23:50:23.338Z,57.37
2018-02-25T23:52:52.924Z,59.03
2018-02-25T23:55:22.536Z,54.30
2018-02-25T23:57:52.108Z,62.00
